Time;durP1;ratioP1;P1;durP2;ratioP2;P2;SDS_P1;SDS_P2;PMS_P1;PMS_P2;Temp;Humidity;BMP_temperature;BMP_pressure;BME280_temperature;BME280_humidity;BME280_pressure;Samples;Min_cycle;Max_cycle;Signal;HPM_P1;HPM_P2
2022/08/24 00:02:26;;;;;;;36.78;30.83;;;21.00;96.30;;;;;;5054441;28;20132;-49
2022/08/24 00:04:53;;;;;;;26.15;23.15;;;21.00;96.60;;;;;;5053698;28;20044;-51
2022/08/24 00:07:20;;;;;;;25.38;22.27;;;21.00;96.40;;;;;;5043983;28;20088;-48
2022/08/24 00:09:47;;;;;;;29.67;25.30;;;20.90;96.30;;;;;;5052843;28;20045;-48
2022/08/24 00:12:14;;;;;;;36.22;29.90;;;20.90;96.40;;;;;;5046247;28;20500;-50
2022/08/24 00:14:42;;;;;;;31.13;27.85;;;20.90;96.60;;;;;;5046876;28;20139;-51
2022/08/24 00:17:09;;;;;;;33.55;28.50;;;20.80;96.50;;;;;;5051817;28;20120;-51
2022/08/24 00:19:36;;;;;;;33.97;29.17;;;20.80;96.50;;;;;;5046368;28;20112;-49
2022/08/24 00:22:03;;;;;;;36.17;31.13;;;20.80;97.10;;;;;;5047183;28;20559;-48
2022/08/24 00:24:29;;;;;;;40.30;33.20;;;20.80;97.00;;;;;;5045964;28;20132;-51
2022/08/24 00:26:56;;;;;;;30.05;26.60;;;20.70;97.40;;;;;;5044778;28;20045;-46
2022/08/24 00:29:23;;;;;;;26.15;23.50;;;20.70;97.00;;;;;;5037741;28;20125;-49
2022/08/24 00:31:51;;;;;;;38.72;33.47;;;20.70;96.70;;;;;;5039874;28;20136;-50
2022/08/24 00:34:18;;;;;;;33.50;29.92;;;20.70;97.10;;;;;;5049600;28;20084;-48
2022/08/24 00:36:45;;;;;;;30.15;26.33;;;20.70;97.00;;;;;;5052530;28;20053;-50
2022/08/24 00:39:12;;;;;;;32.28;28.80;;;20.60;96.80;;;;;;5041243;28;20077;-44
2022/08/24 00:41:40;;;;;;;40.70;34.65;;;20.60;96.80;;;;;;5050644;28;20137;-46
2022/08/24 00:44:07;;;;;;;42.47;37.22;;;20.60;97.10;;;;;;5058163;28;20059;-47
2022/08/24 00:46:40;;;;;;;38.20;34.10;;;20.50;97.40;;;;;;5047661;28;20091;-50
2022/08/24 00:49:13;;;;;;;37.90;32.30;;;20.50;97.40;;;;;;5048395;28;20413;-49
2022/08/24 00:51:43;;;;;;;33.38;29.88;;;20.50;97.30;;;;;;5048772;28;20151;-50
2022/08/24 00:54:12;;;;;;;32.70;29.30;;;20.40;97.30;;;;;;5044423;28;20080;-49
2022/08/24 00:56:42;;;;;;;36.42;32.38;;;20.40;97.00;;;;;;5046398;28;20041;-48
2022/08/24 00:59:11;;;;;;;36.67;32.15;;;20.40;97.40;;;;;;5049817;28;20496;-49
2022/08/24 01:01:37;;;;;;;40.58;34.00;;;20.30;97.60;;;;;;5053467;28;20063;-45
2022/08/24 01:04:05;;;;;;;36.60;31.88;;;20.30;97.70;;;;;;5052913;28;21297;-47
2022/08/24 01:06:33;;;;;;;38.30;34.05;;;20.30;97.80;;;;;;5056814;28;20143;-48
2022/08/24 01:09:00;;;;;;;38.85;34.67;;;20.30;97.90;;;;;;5043064;28;20064;-48
2022/08/24 01:11:27;;;;;;;40.03;35.80;;;20.20;97.90;;;;;;5053492;28;20407;-45
2022/08/24 01:13:54;;;;;;;33.25;29.25;;;20.20;97.90;;;;;;5054141;28;20476;-49
2022/08/24 01:19:02;;;;;;;39.63;34.37;;;20.10;98.00;;;;;;5054462;28;20049;-50
2022/08/24 01:21:30;;;;;;;38.55;34.33;;;20.10;97.90;;;;;;5047745;28;20175;-49
2022/08/24 01:23:59;;;;;;;38.00;33.92;;;20.10;97.90;;;;;;5063978;28;20087;-51
2022/08/24 01:26:27;;;;;;;33.67;28.77;;;20.10;98.10;;;;;;5052723;28;20489;-50
2022/08/24 01:28:56;;;;;;;42.95;38.33;;;20.00;97.90;;;;;;5050023;28;20356;-49
2022/08/24 01:31:23;;;;;;;39.58;35.40;;;20.00;98.40;;;;;;5042837;28;20119;-53
2022/08/24 01:33:50;;;;;;;41.75;36.65;;;20.00;98.50;;;;;;5053375;28;20128;-50
2022/08/24 01:36:19;;;;;;;31.50;28.17;;;19.90;98.40;;;;;;5052112;28;20412;-45
2022/08/24 01:38:46;;;;;;;34.40;30.58;;;19.90;98.30;;;;;;5053573;28;20385;-44
2022/08/24 01:41:15;;;;;;;40.17;35.92;;;19.90;98.10;;;;;;5050159;28;20134;-49
2022/08/24 01:43:41;;;;;;;36.17;32.20;;;19.90;98.20;;;;;;5054058;28;20049;-48
2022/08/24 01:46:09;;;;;;;39.83;35.65;;;19.90;98.30;;;;;;5048507;28;20053;-52
2022/08/24 01:48:36;;;;;;;33.65;30.13;;;19.80;98.40;;;;;;5036532;28;20444;-49
2022/08/24 01:51:02;;;;;;;35.13;31.45;;;19.80;98.10;;;;;;5043840;28;20081;-50
2022/08/24 01:53:29;;;;;;;34.72;30.95;;;19.80;98.40;;;;;;5052489;28;20048;-49
2022/08/24 01:55:56;;;;;;;39.83;35.63;;;19.70;98.30;;;;;;5043691;28;20069;-45
2022/08/24 01:58:24;;;;;;;41.28;36.38;;;19.70;98.50;;;;;;5008729;28;20049;-52
2022/08/24 02:00:51;;;;;;;33.67;30.02;;;19.70;98.50;;;;;;5033043;28;20128;-50
2022/08/24 02:03:19;;;;;;;38.25;34.05;;;19.70;98.50;;;;;;5032044;28;20136;-48
2022/08/24 02:05:46;;;;;;;36.72;32.70;;;19.70;98.50;;;;;;5033202;28;20507;-50
2022/08/24 02:08:12;;;;;;;43.03;37.60;;;19.60;98.50;;;;;;5014528;28;20584;-48
2022/08/24 02:10:39;;;;;;;36.80;33.03;;;19.60;98.50;;;;;;5033348;28;20455;-49
2022/08/24 02:13:06;;;;;;;38.78;34.67;;;19.60;98.50;;;;;;5032589;28;20461;-50
2022/08/24 02:15:36;;;;;;;39.40;34.97;;;19.60;98.50;;;;;;5033192;28;20537;-51
2022/08/24 02:18:04;;;;;;;34.00;30.33;;;19.60;98.60;;;;;;5030463;28;20042;-50
2022/08/24 02:20:30;;;;;;;33.85;30.23;;;19.50;98.50;;;;;;5032186;28;20512;-51
2022/08/24 02:23:00;;;;;;;37.67;33.40;;;19.50;98.40;;;;;;5032018;28;20405;-49
2022/08/24 02:25:29;;;;;;;33.05;29.55;;;19.50;98.50;;;;;;5014968;28;20133;-53
2022/08/24 02:27:56;;;;;;;39.40;33.75;;;19.50;98.20;;;;;;5031169;28;20055;-45
2022/08/24 02:30:23;;;;;;;33.50;27.83;;;19.50;98.50;;;;;;5015913;28;20046;-49
2022/08/24 02:32:51;;;;;;;38.03;34.08;;;19.40;98.20;;;;;;5033117;28;20084;-47
2022/08/24 02:35:18;;;;;;;36.33;32.42;;;19.40;98.40;;;;;;5033145;28;20104;-49
2022/08/24 02:37:45;;;;;;;31.98;28.65;;;19.40;98.70;;;;;;5031737;28;20132;-48
2022/08/24 02:40:12;;;;;;;37.97;34.00;;;19.40;98.60;;;;;;5032710;28;20092;-50
2022/08/24 02:42:38;;;;;;;42.40;34.60;;;19.30;98.80;;;;;;5033032;28;20490;-49
2022/08/24 02:45:06;;;;;;;40.03;35.70;;;19.30;99.20;;;;;;5015226;28;20125;-48
2022/08/24 02:47:33;;;;;;;38.58;34.17;;;19.30;99.30;;;;;;5031208;28;20500;-49
2022/08/24 02:50:02;;;;;;;40.80;34.55;;;19.30;99.10;;;;;;5031793;28;20080;-44
2022/08/24 02:52:29;;;;;;;45.50;37.08;;;19.30;99.10;;;;;;5026032;28;20076;-51
2022/08/24 02:54:56;;;;;;;33.38;29.55;;;19.30;99.20;;;;;;5038901;28;20095;-48
2022/08/24 02:57:23;;;;;;;33.67;30.08;;;19.30;99.20;;;;;;5034345;28;20128;-50
2022/08/24 02:59:50;;;;;;;44.80;36.75;;;19.20;99.10;;;;;;5050410;28;20133;-49
2022/08/24 03:02:17;;;;;;;36.30;32.65;;;19.20;99.10;;;;;;5047621;28;20123;-48
2022/08/24 03:04:44;;;;;;;42.05;36.72;;;19.20;99.10;;;;;;5045122;28;20057;-44
2022/08/24 03:07:13;;;;;;;37.80;33.70;;;19.20;99.40;;;;;;5040202;28;20415;-47
2022/08/24 03:09:39;;;;;;;31.27;27.98;;;19.20;99.50;;;;;;5026904;28;20053;-50
2022/08/24 03:12:07;;;;;;;39.25;35.08;;;19.20;99.40;;;;;;5051299;28;20088;-49
2022/08/24 03:14:34;;;;;;;30.52;27.20;;;19.10;99.50;;;;;;5034095;28;20049;-51
2022/08/24 03:17:01;;;;;;;38.72;34.60;;;19.10;99.40;;;;;;5049672;28;20099;-49
2022/08/24 03:19:28;;;;;;;32.97;29.38;;;19.10;99.40;;;;;;5034753;28;20081;-49
2022/08/24 03:21:55;;;;;;;30.08;26.88;;;19.10;99.30;;;;;;5040941;28;20049;-47
2022/08/24 03:24:23;;;;;;;32.60;27.83;;;19.10;99.00;;;;;;5041513;28;20117;-52
2022/08/24 03:26:50;;;;;;;35.90;32.00;;;19.00;99.00;;;;;;5052459;28;20049;-45
2022/08/24 03:29:16;;;;;;;36.92;32.15;;;19.00;99.20;;;;;;5033946;28;20057;-48
2022/08/24 03:31:43;;;;;;;32.10;27.88;;;19.00;99.20;;;;;;5042366;28;20059;-47
2022/08/24 03:34:12;;;;;;;37.70;33.58;;;19.00;99.20;;;;;;5036122;28;20076;-49
2022/08/24 03:36:39;;;;;;;38.58;32.67;;;19.00;99.40;;;;;;5055274;28;20136;-46
2022/08/24 03:39:05;;;;;;;39.72;32.55;;;19.00;99.40;;;;;;5052392;28;20056;-49
2022/08/24 03:41:33;;;;;;;34.85;31.15;;;19.00;99.40;;;;;;5055529;28;20137;-47
2022/08/24 03:44:00;;;;;;;29.35;26.15;;;18.90;99.40;;;;;;5053331;28;20067;-48
2022/08/24 03:46:28;;;;;;;35.72;31.98;;;18.90;99.40;;;;;;5048285;28;20084;-48
2022/08/24 03:48:55;;;;;;;38.08;33.70;;;18.90;99.60;;;;;;5032921;28;20136;-50
2022/08/24 03:51:23;;;;;;;39.50;35.25;;;18.90;99.60;;;;;;5038092;28;20091;-48
2022/08/24 03:53:50;;;;;;;37.70;33.83;;;18.90;99.70;;;;;;5036888;28;20116;-48
2022/08/24 03:56:17;;;;;;;39.47;35.22;;;18.80;99.70;;;;;;5053408;28;20051;-47
2022/08/24 03:58:46;;;;;;;42.22;37.72;;;18.80;99.70;;;;;;5036034;28;20052;-50
2022/08/24 04:01:13;;;;;;;41.28;36.83;;;18.80;99.90;;;;;;5047233;28;20552;-48
2022/08/24 04:03:41;;;;;;;32.95;29.65;;;18.80;99.90;;;;;;5037553;28;20056;-47
2022/08/24 04:06:08;;;;;;;28.60;25.50;;;18.80;99.90;;;;;;5044941;28;20052;-51
2022/08/24 04:08:35;;;;;;;41.70;37.20;;;18.80;99.60;;;;;;5053954;28;20095;-45
2022/08/24 04:11:02;;;;;;;39.10;34.65;;;18.80;99.70;;;;;;5055841;28;20492;-50
2022/08/24 04:13:30;;;;;;;39.28;35.20;;;18.80;99.70;;;;;;5051570;28;20053;-51
2022/08/24 04:15:58;;;;;;;39.72;34.28;;;18.70;99.80;;;;;;5044637;28;20041;-50
2022/08/24 04:18:25;;;;;;;41.05;36.63;;;18.70;99.90;;;;;;5033114;28;20076;-49
2022/08/24 04:20:52;;;;;;;42.53;36.80;;;18.70;99.90;;;;;;5055652;28;20409;-47
2022/08/24 04:23:19;;;;;;;30.92;26.95;;;18.70;99.90;;;;;;5053853;28;20553;-48
2022/08/24 04:25:46;;;;;;;36.80;28.95;;;18.60;99.90;;;;;;5045578;28;20055;-49
2022/08/24 04:28:14;;;;;;;38.38;34.38;;;18.70;99.90;;;;;;5052613;28;20076;-48
2022/08/24 04:30:41;;;;;;;36.78;32.85;;;18.70;99.90;;;;;;5045934;28;20061;-51
2022/08/24 04:33:10;;;;;;;39.40;35.28;;;18.70;99.90;;;;;;5054689;28;20131;-48
2022/08/24 04:35:38;;;;;;;41.05;36.38;;;18.70;99.90;;;;;;5035327;28;20060;-50
2022/08/24 04:38:04;;;;;;;29.90;26.75;;;18.60;99.90;;;;;;5053591;28;20950;-47
2022/08/24 04:40:31;;;;;;;36.08;31.38;;;18.60;99.90;;;;;;5053035;28;20080;-50
2022/08/24 04:42:58;;;;;;;30.58;27.38;;;18.60;99.90;;;;;;5054348;28;20080;-48
2022/08/24 04:45:25;;;;;;;36.40;32.55;;;18.60;99.90;;;;;;5053018;28;20052;-42
2022/08/24 04:47:52;;;;;;;38.75;34.75;;;18.60;99.90;;;;;;5052355;28;20056;-39
2022/08/24 04:50:20;;;;;;;36.50;32.78;;;18.60;99.90;;;;;;5034815;28;20115;-48
2022/08/24 04:52:47;;;;;;;32.78;29.33;;;18.60;99.90;;;;;;5035624;28;20057;-48
2022/08/24 04:55:14;;;;;;;34.40;30.88;;;18.60;99.90;;;;;;5035007;28;20045;-46
2022/08/24 04:57:41;;;;;;;44.58;39.78;;;18.50;99.90;;;;;;5036510;28;20060;-49
2022/08/24 05:00:09;;;;;;;40.00;34.80;;;18.50;99.90;;;;;;5052280;28;20073;-47
2022/08/24 05:02:38;;;;;;;28.25;25.35;;;18.50;99.90;;;;;;5045786;28;20049;-50
2022/08/24 05:05:05;;;;;;;36.97;32.97;;;18.50;99.90;;;;;;5051438;28;20041;-47
2022/08/24 05:07:33;;;;;;;28.30;24.63;;;18.50;99.90;;;;;;5047334;28;20049;-45
2022/08/24 05:10:00;;;;;;;35.15;31.45;;;18.50;99.90;;;;;;5052502;28;20448;-47
2022/08/24 05:12:27;;;;;;;29.50;26.17;;;18.50;99.90;;;;;;5030146;28;20053;-44
2022/08/24 05:14:54;;;;;;;37.25;33.15;;;18.50;99.90;;;;;;5024825;28;20500;-48
2022/08/24 05:17:21;;;;;;;28.85;25.83;;;18.50;99.90;;;;;;5045211;28;20049;-50
2022/08/24 05:19:48;;;;;;;29.48;26.30;;;18.50;99.90;;;;;;5039192;28;20053;-50
2022/08/24 05:22:14;;;;;;;33.95;27.48;;;18.50;99.90;;;;;;5026448;28;20079;-47
2022/08/24 05:24:42;;;;;;;33.40;29.95;;;18.50;99.90;;;;;;5048375;28;20474;-49
2022/08/24 05:27:09;;;;;;;28.65;25.63;;;18.50;99.90;;;;;;5051291;28;20140;-50
2022/08/24 05:29:36;;;;;;;30.85;27.65;;;18.60;99.90;;;;;;5053732;28;20071;-46
2022/08/24 05:32:04;;;;;;;39.88;35.67;;;18.60;99.90;;;;;;5052824;28;20488;-50
2022/08/24 05:34:30;;;;;;;37.45;33.50;;;18.60;99.90;;;;;;5036895;28;20056;-48
2022/08/24 05:36:57;;;;;;;38.67;34.47;;;18.60;99.90;;;;;;5049985;28;20120;-52
2022/08/24 05:39:24;;;;;;;30.58;27.45;;;18.60;99.90;;;;;;5045172;28;20052;-51
2022/08/24 05:41:52;;;;;;;35.35;31.70;;;18.60;99.90;;;;;;5051295;28;20053;-46
2022/08/24 05:44:19;;;;;;;39.72;29.67;;;18.70;99.90;;;;;;5034659;28;20049;-49
2022/08/24 05:46:46;;;;;;;32.63;25.88;;;18.70;99.90;;;;;;5052720;28;20041;-47
2022/08/24 05:49:12;;;;;;;26.02;23.23;;;18.70;99.90;;;;;;5034832;28;20080;-49
2022/08/24 05:51:41;;;;;;;35.75;29.90;;;18.80;99.90;;;;;;5035575;28;20080;-51
2022/08/24 05:54:08;;;;;;;34.72;30.92;;;18.80;99.90;;;;;;5052155;28;20106;-52
2022/08/24 05:56:34;;;;;;;47.65;42.42;;;18.90;99.90;;;;;;5052822;28;20080;-50
2022/08/24 05:59:03;;;;;;;49.88;43.80;;;18.90;99.90;;;;;;5061035;28;20053;-51
2022/08/24 06:01:30;;;;;;;60.60;52.03;;;19.00;99.90;;;;;;5046980;28;20046;-51
2022/08/24 06:03:57;;;;;;;64.30;54.17;;;19.10;99.90;;;;;;5034294;28;20064;-50
2022/08/24 06:06:25;;;;;;;49.80;44.60;;;19.20;99.90;;;;;;5032052;28;20051;-46
2022/08/24 06:08:54;;;;;;;49.65;44.05;;;19.30;99.90;;;;;;5037053;28;20478;-52
2022/08/24 06:11:23;;;;;;;52.72;46.00;;;19.40;99.90;;;;;;5050108;28;20386;-47
2022/08/24 06:13:50;;;;;;;44.85;40.17;;;19.50;99.90;;;;;;5049926;28;20084;-50
2022/08/24 06:16:19;;;;;;;47.05;42.03;;;19.60;99.90;;;;;;5050670;28;20052;-52
2022/08/24 06:18:46;;;;;;;41.75;37.30;;;19.70;99.90;;;;;;5046419;28;20141;-49
2022/08/24 06:21:15;;;;;;;39.50;35.15;;;19.70;99.90;;;;;;5041428;28;20088;-50
2022/08/24 06:23:42;;;;;;;48.25;42.60;;;19.80;99.90;;;;;;5040232;28;20269;-48
2022/08/24 06:28:54;;;;;;;46.20;41.28;;;20.00;99.90;;;;;;5022288;28;20076;-48
2022/08/24 06:31:23;;;;;;;48.65;42.25;;;20.10;99.90;;;;;;5047870;28;20128;-48
2022/08/24 06:33:49;;;;;;;50.05;43.20;;;20.10;99.90;;;;;;5046472;28;20405;-44
2022/08/24 06:36:16;;;;;;;44.97;40.20;;;20.30;99.90;;;;;;5035601;28;20056;-49
2022/08/24 06:38:43;;;;;;;48.45;42.88;;;20.40;99.90;;;;;;5039870;28;20084;-48
2022/08/24 06:41:10;;;;;;;55.40;46.92;;;20.50;99.90;;;;;;5031563;28;21689;-52
2022/08/24 06:43:37;;;;;;;57.72;47.88;;;20.60;99.90;;;;;;5048318;28;20068;-47
2022/08/24 06:46:04;;;;;;;52.13;45.90;;;20.70;99.90;;;;;;5048716;28;20464;-46
2022/08/24 06:48:32;;;;;;;52.25;46.38;;;20.80;99.90;;;;;;5030765;28;20148;-50
2022/08/24 06:50:59;;;;;;;53.20;46.45;;;21.00;99.90;;;;;;5052656;28;20079;-51
2022/08/24 06:53:26;;;;;;;52.63;46.97;;;21.10;99.90;;;;;;5043114;28;20087;-50
2022/08/24 06:55:54;;;;;;;55.47;47.90;;;21.20;99.90;;;;;;5027864;28;20100;-49
2022/08/24 06:58:21;;;;;;;47.97;42.67;;;21.30;99.90;;;;;;5005410;28;20053;-51
2022/08/24 07:00:47;;;;;;;53.65;47.83;;;21.40;99.90;;;;;;5013505;28;20564;-51
2022/08/24 07:03:14;;;;;;;51.00;45.47;;;21.60;99.90;;;;;;5045298;28;20048;-49
2022/08/24 07:05:49;;;;;;;51.78;44.75;;;21.70;99.90;;;;;;5030494;28;20091;-50
2022/08/24 07:08:16;;;;;;;50.33;44.95;;;21.90;99.90;;;;;;5011194;28;20124;-42
2022/08/24 07:10:43;;;;;;;53.78;43.28;;;22.00;99.90;;;;;;5011575;28;20076;-51
2022/08/24 07:13:10;;;;;;;47.25;41.83;;;22.10;99.90;;;;;;5011003;28;20049;-50
2022/08/24 07:15:38;;;;;;;44.63;39.50;;;22.20;99.90;;;;;;5028170;28;20049;-49
2022/08/24 07:18:08;;;;;;;41.88;36.00;;;22.30;99.90;;;;;;5050862;28;20057;-46
2022/08/24 07:20:35;;;;;;;44.83;37.83;;;22.50;99.90;;;;;;5033041;28;20049;-49
2022/08/24 07:23:03;;;;;;;40.10;33.45;;;22.60;99.90;;;;;;5010699;28;20056;-49
2022/08/24 07:25:30;;;;;;;35.92;32.13;;;22.80;99.90;;;;;;5007480;28;20136;-48
2022/08/24 07:27:59;;;;;;;36.30;28.20;;;22.90;99.90;;;;;;5013658;28;20049;-50
2022/08/24 07:30:26;;;;;;;39.60;28.40;;;23.10;99.60;;;;;;5042787;28;20123;-42
2022/08/24 07:32:53;;;;;;;28.35;25.45;;;23.20;99.20;;;;;;5031192;28;20535;-48
2022/08/24 07:35:20;;;;;;;30.08;26.63;;;23.30;99.00;;;;;;5030568;28;20088;-46
2022/08/24 07:37:46;;;;;;;30.17;25.73;;;23.50;98.80;;;;;;5009200;28;20136;-45
2022/08/24 07:40:15;;;;;;;29.65;26.25;;;23.70;99.00;;;;;;5031903;28;20049;-51
2022/08/24 07:42:41;;;;;;;30.50;25.75;;;23.90;98.70;;;;;;5031303;28;20100;-48
2022/08/24 07:45:09;;;;;;;30.55;24.38;;;24.00;98.20;;;;;;5043695;28;20104;-52
2022/08/24 07:47:36;;;;;;;40.28;24.63;;;24.20;97.90;;;;;;5014525;28;20052;-49
2022/08/24 07:50:03;;;;;;;25.65;22.58;;;24.40;97.50;;;;;;5031064;28;20055;-47
2022/08/24 07:52:31;;;;;;;23.30;18.75;;;24.60;97.20;;;;;;5015578;28;20049;-49
2022/08/24 07:55:48;;;;;;;22.40;18.02;;;24.70;96.90;;;;;;5040152;28;20049;-48
2022/08/24 07:58:17;;;;;;;23.13;19.33;;;24.90;96.50;;;;;;5036823;28;20038;-51
2022/08/24 08:00:46;;;;;;;22.52;16.92;;;25.00;96.20;;;;;;5038650;28;20073;-42
2022/08/24 08:06:06;;;;;;;21.17;16.70;;;25.30;94.90;;;;;;4895493;22;20560;-53
2022/08/24 08:08:34;;;;;;;25.05;14.07;;;25.40;94.60;;;;;;5072589;28;20101;-52
2022/08/24 08:11:02;;;;;;;20.58;14.60;;;25.50;94.00;;;;;;5090170;28;20052;-48
2022/08/24 08:13:30;;;;;;;20.38;14.57;;;25.60;93.50;;;;;;5090763;28;20052;-49
2022/08/24 08:15:58;;;;;;;20.08;14.18;;;25.70;93.10;;;;;;5089798;28;20123;-52
2022/08/24 08:18:24;;;;;;;21.52;15.20;;;25.80;93.20;;;;;;5092387;28;20121;-45
2022/08/24 08:20:51;;;;;;;22.65;13.27;;;25.90;93.00;;;;;;5089664;28;20124;-52
2022/08/24 08:26:02;;;;;;;22.67;15.05;;;26.10;92.30;;;;;;5099336;28;20135;-51
2022/08/24 08:28:32;;;;;;;20.00;14.18;;;26.30;91.80;;;;;;5080253;28;20079;-49
2022/08/24 08:30:59;;;;;;;20.10;14.88;;;26.40;91.60;;;;;;5095115;28;20052;-51
2022/08/24 08:33:26;;;;;;;18.80;14.85;;;26.50;91.60;;;;;;5074707;28;20131;-43
2022/08/24 08:35:53;;;;;;;23.70;14.63;;;26.60;91.20;;;;;;5081679;28;20060;-49
2022/08/24 08:38:20;;;;;;;21.85;14.10;;;26.70;90.90;;;;;;5093949;28;20140;-52
2022/08/24 08:40:54;;;;;;;23.65;13.18;;;26.90;90.80;;;;;;5075743;28;20539;-49
2022/08/24 08:43:32;;;;;;;18.15;14.13;;;27.00;90.80;;;;;;5091703;28;20484;-48
2022/08/24 08:46:10;;;;;;;19.50;11.90;;;27.20;90.90;;;;;;5086588;28;20080;-48
2022/08/24 08:48:52;;;;;;;15.32;12.40;;;27.30;90.10;;;;;;5076029;28;20063;-51
2022/08/24 08:51:48;;;;;;;16.88;9.90;;;27.50;89.70;;;;;;5094078;28;20133;-47
2022/08/24 08:54:25;;;;;;;18.85;12.57;;;27.60;89.20;;;;;;5076451;28;20179;-51
2022/08/24 08:57:11;;;;;;;17.17;11.02;;;27.80;88.10;;;;;;5076008;28;20044;-50
2022/08/24 08:59:46;;;;;;;15.10;9.35;;;27.90;87.50;;;;;;5073456;28;20045;-46
2022/08/24 09:02:21;;;;;;;15.13;9.15;;;28.00;86.30;;;;;;5094208;28;20482;-47
2022/08/24 09:04:59;;;;;;;16.77;9.27;;;28.20;86.10;;;;;;5073623;28;20549;-51
2022/08/24 09:07:31;;;;;;;15.02;10.45;;;28.30;86.30;;;;;;5074528;28;20151;-50
2022/08/24 09:10:21;;;;;;;14.57;9.10;;;28.50;85.70;;;;;;5090635;28;20067;-51
2022/08/24 09:12:55;;;;;;;14.77;9.82;;;28.50;85.30;;;;;;5091802;28;20499;-44
2022/08/24 09:15:45;;;;;;;17.90;9.30;;;28.60;84.60;;;;;;5076953;28;20073;-41
2022/08/24 09:18:23;;;;;;;15.38;8.90;;;28.70;85.00;;;;;;5070277;28;20182;-47
2022/08/24 09:21:01;;;;;;;15.48;9.40;;;28.90;84.50;;;;;;5100014;28;20053;-54
2022/08/24 09:23:31;;;;;;;12.07;8.75;;;28.90;83.50;;;;;;5073969;28;20100;-52
2022/08/24 09:26:01;;;;;;;18.90;12.73;;;29.00;82.90;;;;;;5072512;28;20048;-52
2022/08/24 09:28:39;;;;;;;14.68;12.18;;;29.00;81.70;;;;;;5094352;28;20535;-53
2022/08/24 09:31:48;;;;;;;14.88;10.75;;;29.10;81.60;;;;;;5075862;28;20047;-54
2022/08/24 09:34:23;;;;;;;12.02;8.77;;;29.20;82.40;;;;;;5063781;28;20067;-48
2022/08/24 09:36:54;;;;;;;14.30;9.88;;;29.30;82.60;;;;;;5075031;28;20048;-52
2022/08/24 09:39:36;;;;;;;16.73;10.27;;;29.50;81.40;;;;;;5081257;28;20100;-46
2022/08/24 09:42:35;;;;;;;16.13;10.00;;;29.60;80.90;;;;;;5092237;28;20063;-52
2022/08/24 09:45:26;;;;;;;14.43;11.98;;;29.70;80.40;;;;;;5086219;28;20105;-51
2022/08/24 09:48:41;;;;;;;25.83;10.97;;;29.70;78.30;;;;;;5059736;28;20506;-52
2022/08/24 09:51:25;;;;;;;13.30;10.55;;;29.70;80.40;;;;;;4999710;28;20137;-52
2022/08/24 09:54:43;;;;;;;16.15;10.32;;;29.80;79.70;;;;;;5088008;28;20079;-45
2022/08/24 09:57:30;;;;;;;18.33;11.13;;;29.90;81.30;;;;;;5032818;28;20081;-49
2022/08/24 10:00:10;;;;;;;10.98;7.30;;;30.00;79.00;;;;;;5032666;28;20147;-53
2022/08/24 10:02:53;;;;;;;10.10;6.70;;;30.20;77.60;;;;;;5058995;28;20400;-47
2022/08/24 10:05:25;;;;;;;10.93;7.15;;;30.20;78.00;;;;;;5073930;28;20978;-45
2022/08/24 10:07:58;;;;;;;13.20;8.50;;;30.40;77.70;;;;;;5092992;28;20047;-52
2022/08/24 10:10:29;;;;;;;9.15;5.78;;;30.50;78.10;;;;;;5087624;28;20105;-48
2022/08/24 10:13:04;;;;;;;6.20;4.45;;;30.60;75.40;;;;;;5087567;28;20044;-42
2022/08/24 10:15:32;;;;;;;9.73;4.50;;;30.70;75.40;;;;;;5086188;28;20071;-52
2022/08/24 10:18:19;;;;;;;7.07;3.40;;;30.80;75.40;;;;;;5086353;28;20500;-52
2022/08/24 10:20:54;;;;;;;6.05;2.70;;;30.90;75.20;;;;;;5084773;28;20377;-47
2022/08/24 10:23:38;;;;;;;6.35;3.75;;;31.00;73.80;;;;;;5090226;28;20079;-53
2022/08/24 10:26:09;;;;;;;9.07;3.83;;;31.20;74.30;;;;;;5074211;28;20127;-51
2022/08/24 10:29:01;;;;;;;10.95;3.70;;;31.40;73.00;;;;;;5091899;28;20101;-51
2022/08/24 10:31:30;;;;;;;11.13;5.03;;;31.50;73.40;;;;;;5088241;28;20109;-52
2022/08/24 10:34:05;;;;;;;8.75;4.20;;;31.50;72.20;;;;;;5064642;28;20358;-53
2022/08/24 10:37:03;;;;;;;7.43;4.13;;;31.60;71.50;;;;;;5081081;28;20048;-48
2022/08/24 10:39:59;;;;;;;8.63;4.38;;;31.60;71.60;;;;;;5089010;28;20071;-51
2022/08/24 10:46:09;;;;;;;7.15;4.32;;;31.80;72.10;;;;;;5068581;28;20047;-48
2022/08/24 10:49:01;;;;;;;6.03;4.53;;;31.90;71.80;;;;;;5091579;28;20054;-52
2022/08/24 10:51:34;;;;;;;4.88;3.90;;;32.00;72.00;;;;;;5068941;28;20119;-47
2022/08/24 10:54:03;;;;;;;9.50;4.30;;;32.10;71.50;;;;;;5098222;28;20048;-51
2022/08/24 10:56:36;;;;;;;9.82;5.00;;;32.10;69.80;;;;;;5105546;28;20055;-52
2022/08/24 10:59:07;;;;;;;6.75;4.78;;;32.00;68.90;;;;;;5103306;28;20530;-48
2022/08/24 11:01:35;;;;;;;8.98;3.33;;;31.90;68.40;;;;;;5084882;28;20048;-49
2022/08/24 11:04:05;;;;;;;4.25;3.10;;;32.00;69.60;;;;;;5079547;28;20040;-49
2022/08/24 11:06:34;;;;;;;5.45;2.90;;;32.20;69.70;;;;;;5094276;28;20060;-49
2022/08/24 11:09:05;;;;;;;4.50;2.15;;;32.30;69.20;;;;;;5096503;28;20131;-50
2022/08/24 11:11:35;;;;;;;4.43;2.40;;;32.50;68.30;;;;;;5090759;28;20483;-52
2022/08/24 11:14:03;;;;;;;8.68;2.30;;;32.50;67.00;;;;;;5094366;28;20130;-49
2022/08/24 11:16:33;;;;;;;8.90;2.60;;;32.40;66.40;;;;;;5078083;28;20052;-48
2022/08/24 11:19:01;;;;;;;5.47;3.42;;;32.40;66.60;;;;;;5074401;28;20576;-43
2022/08/24 11:21:39;;;;;;;7.68;3.00;;;32.40;66.20;;;;;;5095738;28;20047;-53
2022/08/24 11:24:08;;;;;;;6.40;2.40;;;32.40;67.40;;;;;;5082113;28;20048;-52
2022/08/24 11:26:50;;;;;;;4.35;2.60;;;32.50;66.40;;;;;;5072857;28;20121;-52
2022/08/24 11:29:17;;;;;;;3.58;2.13;;;32.60;66.40;;;;;;5087845;28;20048;-51
2022/08/24 11:31:44;;;;;;;4.90;2.70;;;32.60;65.30;;;;;;5096953;28;20040;-44
2022/08/24 11:34:14;;;;;;;3.28;2.15;;;32.60;66.10;;;;;;5076035;28;20048;-52
2022/08/24 11:36:41;;;;;;;5.00;2.08;;;32.70;66.60;;;;;;5091922;28;20052;-54
2022/08/24 11:39:15;;;;;;;2.20;1.70;;;32.80;66.20;;;;;;5091518;28;20113;-53
2022/08/24 11:41:49;;;;;;;4.30;1.67;;;33.00;66.30;;;;;;5101960;28;20047;-52
2022/08/24 11:44:25;;;;;;;6.53;2.25;;;33.20;65.50;;;;;;5061535;28;20071;-52
2022/08/24 11:46:53;;;;;;;3.47;1.83;;;33.40;64.90;;;;;;5092313;28;20063;-45
2022/08/24 11:49:21;;;;;;;4.25;1.90;;;33.40;64.30;;;;;;5073915;28;20052;-54
2022/08/24 11:51:53;;;;;;;6.05;1.65;;;33.50;64.60;;;;;;5102394;28;20043;-53
2022/08/24 11:54:24;;;;;;;4.05;1.75;;;33.60;65.30;;;;;;5105320;28;20116;-49
2022/08/24 11:57:01;;;;;;;2.92;1.73;;;33.60;63.80;;;;;;5109424;28;20051;-53
2022/08/24 11:59:33;;;;;;;3.97;1.88;;;33.50;65.20;;;;;;5095430;28;20040;-52
2022/08/24 12:02:04;;;;;;;1.92;1.50;;;33.50;64.40;;;;;;5078474;28;20090;-53
2022/08/24 12:04:37;;;;;;;7.05;3.10;;;33.50;64.80;;;;;;5078041;28;20079;-53
2022/08/24 12:07:10;;;;;;;5.05;2.85;;;33.50;64.10;;;;;;5074571;28;20136;-52
2022/08/24 12:09:46;;;;;;;3.80;2.03;;;33.60;63.70;;;;;;5058359;28;20659;-50
2022/08/24 12:12:17;;;;;;;5.25;2.08;;;33.70;62.90;;;;;;5075512;28;20053;-54
2022/08/24 12:14:46;;;;;;;4.05;2.35;;;33.70;62.50;;;;;;5075588;28;20093;-54
2022/08/24 12:17:16;;;;;;;5.60;2.65;;;33.90;62.10;;;;;;5074716;28;20080;-52
2022/08/24 12:19:46;;;;;;;5.03;2.20;;;33.90;62.20;;;;;;5074311;28;20048;-53
2022/08/24 12:22:13;;;;;;;3.43;2.30;;;33.90;62.00;;;;;;5074037;28;20064;-51
2022/08/24 12:24:41;;;;;;;5.72;2.78;;;33.80;62.00;;;;;;5075268;28;20385;-53
2022/08/24 12:27:09;;;;;;;6.25;2.60;;;33.70;61.30;;;;;;5074186;28;20715;-52
2022/08/24 12:29:41;;;;;;;4.97;2.50;;;33.70;61.90;;;;;;5074338;28;20052;-54
2022/08/24 12:32:10;;;;;;;3.65;2.00;;;33.60;61.70;;;;;;5076461;28;20680;-54
2022/08/24 12:34:44;;;;;;;4.47;1.80;;;33.50;63.20;;;;;;5078075;28;20056;-53
2022/08/24 12:37:13;;;;;;;3.72;2.08;;;33.50;64.40;;;;;;5091314;28;20450;-53
2022/08/24 12:39:41;;;;;;;4.47;1.85;;;33.30;62.80;;;;;;5072100;28;20123;-53
2022/08/24 12:42:12;;;;;;;5.90;1.95;;;33.10;63.40;;;;;;5077559;28;20106;-52
2022/08/24 12:44:43;;;;;;;;;;;33.10;63.70;;;;;;5067052;28;20056;-52
2022/08/24 12:47:10;;;;;;;4.05;1.70;;;33.00;65.60;;;;;;5075098;28;19968;-54
2022/08/24 12:49:40;;;;;;;4.03;1.65;;;33.10;64.20;;;;;;5075086;28;20593;-52
2022/08/24 12:52:52;;;;;;;3.90;1.80;;;33.30;63.60;;;;;;5074469;28;20075;-54
2022/08/24 12:55:25;;;;;;;5.18;1.88;;;33.60;63.70;;;;;;4996843;28;20084;-52
2022/08/24 12:57:57;;;;;;;3.05;1.70;;;33.80;62.70;;;;;;5074958;28;20437;-52
2022/08/24 13:00:27;;;;;;;3.55;1.63;;;33.90;63.20;;;;;;5067486;28;20048;-52
2022/08/24 13:02:56;;;;;;;2.42;1.70;;;34.10;62.90;;;;;;5072615;28;20045;-51
2022/08/24 13:05:23;;;;;;;6.40;1.85;;;34.30;62.30;;;;;;5073841;28;20579;-53